Time;durP1;ratioP1;P1;durP2;ratioP2;P2;SDS_P1;SDS_P2;PMS_P1;PMS_P2;Temp;Humidity;BMP_temperature;BMP_pressure;BME280_temperature;BME280_humidity;BME280_pressure;Samples;Min_cycle;Max_cycle;Signal;HPM_P1;HPM_P2
2023/09/15 00:00:30;;;;;;;0.50;0.50;;;;;;;11.48;74.40;99561.41;6196253;23;20016;-90
2023/09/15 00:02:58;;;;;;;0.52;0.52;;;;;;;11.36;74.62;99560.56;6180774;23;20024;-91
2023/09/15 00:05:28;;;;;;;0.50;0.50;;;;;;;11.29;75.10;99574.19;6194865;23;20044;-90
2023/09/15 00:08:04;;;;;;;0.50;0.50;;;;;;;11.15;75.69;99570.09;6198333;23;20047;-92
2023/09/15 00:10:39;;;;;;;0.50;0.50;;;;;;;11.05;76.31;99559.88;6147045;23;20031;-89
2023/09/15 00:13:06;;;;;;;0.60;0.60;;;;;;;11.00;76.53;99562.47;6195490;23;20360;-87
2023/09/15 00:15:34;;;;;;;0.50;0.50;;;;;;;11.00;76.59;99567.84;6221305;23;20017;-87
2023/09/15 00:18:02;;;;;;;0.50;0.50;;;;;;;10.96;76.96;99569.38;6194295;23;20025;-89
2023/09/15 00:20:30;;;;;;;0.60;0.60;;;;;;;10.93;77.03;99561.75;6221814;23;20028;-89
2023/09/15 00:22:58;;;;;;;0.47;0.47;;;;;;;10.88;77.07;99567.03;6221921;23;20520;-89
2023/09/15 00:25:27;;;;;;;0.50;0.50;;;;;;;10.83;77.64;99573.94;6168390;23;20025;-90
2023/09/15 00:27:59;;;;;;;0.60;0.60;;;;;;;10.79;78.06;99570.06;6219440;23;20024;-89
2023/09/15 00:30:28;;;;;;;0.50;0.50;;;;;;;10.76;78.05;99567.00;6219672;23;20055;-89
2023/09/15 00:32:56;;;;;;;0.50;0.50;;;;;;;10.73;78.43;99570.97;6195014;23;20031;-89
2023/09/15 00:35:27;;;;;;;0.50;0.50;;;;;;;10.73;78.58;99570.97;6219979;23;20103;-90
2023/09/15 00:37:57;;;;;;;0.50;0.50;;;;;;;10.71;78.64;99573.09;6146164;23;20020;-89
2023/09/15 00:40:28;;;;;;;0.50;0.50;;;;;;;10.75;78.58;99571.56;6196359;23;20080;-89
2023/09/15 00:42:55;;;;;;;0.50;0.50;;;;;;;10.80;78.35;99578.97;6193704;23;20020;-89
2023/09/15 00:45:22;;;;;;;0.50;0.50;;;;;;;10.76;78.51;99584.03;6171714;23;20021;-91
2023/09/15 00:47:52;;;;;;;0.50;0.50;;;;;;;10.70;78.68;99576.84;6219715;23;20460;-89
2023/09/15 00:50:23;;;;;;;0.50;0.50;;;;;;;10.63;78.67;99579.66;6193462;23;20049;-89
2023/09/15 00:52:57;;;;;;;0.50;0.50;;;;;;;10.59;79.31;99593.84;6170600;23;20024;-89
2023/09/15 00:55:24;;;;;;;0.50;0.50;;;;;;;10.51;79.53;99589.59;6168701;23;20345;-89
2023/09/15 00:57:53;;;;;;;0.50;0.50;;;;;;;10.41;80.34;99590.16;6142642;23;20103;-89
2023/09/15 01:00:22;;;;;;;0.52;0.52;;;;;;;10.36;80.55;99591.88;6191328;23;20111;-89
2023/09/15 01:02:50;;;;;;;0.60;0.60;;;;;;;10.30;81.06;99590.91;6191482;23;20035;-90
2023/09/15 01:05:21;;;;;;;0.50;0.50;;;;;;;10.21;81.51;99592.25;6218361;23;20025;-90
2023/09/15 01:07:53;;;;;;;0.50;0.50;;;;;;;10.22;81.64;99590.38;6214850;23;20047;-89
2023/09/15 01:10:23;;;;;;;0.60;0.60;;;;;;;10.28;81.50;99595.72;6217321;23;20025;-90
2023/09/15 01:12:52;;;;;;;0.60;0.60;;;;;;;10.32;81.50;99588.00;6216633;23;20016;-88
2023/09/15 01:15:34;;;;;;;0.50;0.50;;;;;;;10.29;81.75;99597.38;6217219;23;20079;-88
2023/09/15 01:18:17;;;;;;;0.50;0.50;;;;;;;10.27;81.91;99601.31;6217265;23;20124;-88
2023/09/15 01:20:50;;;;;;;0.50;0.50;;;;;;;10.25;82.15;99606.91;6214481;23;20020;-90
2023/09/15 01:23:55;;;;;;;0.55;0.55;;;;;;;10.23;82.04;99605.50;6216519;23;20028;-88
2023/09/15 01:26:26;;;;;;;0.50;0.50;;;;;;;10.22;82.10;99604.69;6169393;23;20025;-88
2023/09/15 01:29:20;;;;;;;0.60;0.60;;;;;;;10.29;82.02;99597.38;6215876;23;20107;-89
2023/09/15 01:31:48;;;;;;;0.50;0.50;;;;;;;10.29;81.69;99605.47;6190055;23;20116;-90
2023/09/15 01:34:16;;;;;;;0.50;0.50;;;;;;;10.26;81.82;99605.88;6165903;23;20055;-89
2023/09/15 01:36:45;;;;;;;0.50;0.50;;;;;;;10.21;82.14;99597.66;6165149;23;20020;-88
2023/09/15 01:39:12;;;;;;;0.60;0.60;;;;;;;10.14;82.48;99602.31;6218189;23;20020;-88
2023/09/15 01:41:39;;;;;;;0.50;0.50;;;;;;;10.13;82.80;99603.38;6216919;23;20082;-89
2023/09/15 01:44:06;;;;;;;0.50;0.50;;;;;;;10.10;82.87;99607.34;6190161;23;20051;-89
2023/09/15 01:46:33;;;;;;;0.50;0.50;;;;;;;10.05;83.06;99614.44;6152868;23;20021;-88
2023/09/15 01:49:01;;;;;;;0.50;0.50;;;;;;;9.98;83.50;99607.28;6154270;23;20025;-90
2023/09/15 01:51:30;;;;;;;0.60;0.60;;;;;;;9.91;83.55;99606.53;6130025;23;20022;-90
2023/09/15 01:53:57;;;;;;;0.60;0.60;;;;;;;9.81;83.91;99608.91;6130639;23;20041;-91
2023/09/15 01:56:28;;;;;;;0.57;0.57;;;;;;;9.79;84.24;99596.72;6129399;23;20033;-89
2023/09/15 01:58:56;;;;;;;0.60;0.60;;;;;;;9.84;84.40;99596.88;6153599;23;20018;-89
2023/09/15 02:01:23;;;;;;;0.60;0.60;;;;;;;9.94;84.37;99602.53;6129918;23;20036;-89
2023/09/15 02:03:50;;;;;;;0.60;0.60;;;;;;;9.93;84.15;99607.13;6154889;23;20440;-90
2023/09/15 02:06:18;;;;;;;0.60;0.60;;;;;;;9.91;84.27;99603.81;6128712;23;20025;-88
2023/09/15 02:08:45;;;;;;;0.52;0.52;;;;;;;9.87;84.22;99597.22;6150366;23;20029;-91
2023/09/15 02:11:13;;;;;;;0.50;0.50;;;;;;;9.91;84.38;99598.44;6126289;23;20026;-90
2023/09/15 02:13:41;;;;;;;0.60;0.60;;;;;;;9.93;84.42;99598.22;6150759;23;20053;-89
2023/09/15 02:16:09;;;;;;;0.60;0.60;;;;;;;9.95;84.24;99605.03;6151806;23;20488;-90
2023/09/15 02:18:36;;;;;;;0.60;0.60;;;;;;;9.96;84.44;99600.47;6205220;23;20496;-88
2023/09/15 02:21:04;;;;;;;0.60;0.60;;;;;;;10.04;83.86;99602.84;6212933;23;20021;-89
2023/09/15 02:23:31;;;;;;;0.50;0.50;;;;;;;10.06;83.65;99603.44;6212609;23;20035;-90
2023/09/15 02:26:05;;;;;;;0.50;0.50;;;;;;;10.11;83.33;99598.19;6186271;23;20025;-89
2023/09/15 02:28:33;;;;;;;0.60;0.60;;;;;;;10.17;82.84;99601.84;6212499;23;20112;-90
2023/09/15 02:31:06;;;;;;;0.60;0.60;;;;;;;10.15;82.33;99594.00;6212678;23;20047;-89
2023/09/15 02:33:37;;;;;;;0.40;0.40;;;;;;;10.18;82.27;99606.22;6187169;23;20158;-90
2023/09/15 02:36:05;;;;;;;0.50;0.50;;;;;;;10.14;82.22;99602.31;6186420;23;20055;-90
2023/09/15 02:38:34;;;;;;;0.50;0.50;;;;;;;10.20;82.00;99609.47;6186259;23;20025;-90
2023/09/15 02:41:03;;;;;;;0.50;0.50;;;;;;;10.19;81.87;99610.53;6186751;23;20112;-90
2023/09/15 02:43:30;;;;;;;0.60;0.60;;;;;;;10.19;81.86;99605.16;6186426;23;20039;-90
2023/09/15 02:46:04;;;;;;;0.60;0.60;;;;;;;10.22;81.64;99602.00;6174749;23;20055;-90
2023/09/15 02:48:33;;;;;;;0.60;0.60;;;;;;;10.24;81.50;99610.69;6162678;23;20021;-91
2023/09/15 02:51:01;;;;;;;0.50;0.50;;;;;;;10.23;81.54;99614.44;6187719;23;20039;-90
2023/09/15 02:53:29;;;;;;;0.50;0.50;;;;;;;10.23;81.29;99609.03;6186997;23;20032;-88
2023/09/15 02:56:02;;;;;;;0.50;0.50;;;;;;;10.18;81.74;99603.50;6187123;23;20017;-89
2023/09/15 02:58:33;;;;;;;0.50;0.50;;;;;;;10.13;81.92;99606.06;6186159;23;20028;-89
2023/09/15 03:01:11;;;;;;;0.50;0.50;;;;;;;10.11;81.87;99610.84;6186754;23;20404;-90
2023/09/15 03:03:38;;;;;;;0.50;0.50;;;;;;;10.07;82.17;99615.03;6188708;23;20664;-89
2023/09/15 03:06:07;;;;;;;0.60;0.60;;;;;;;10.13;82.36;99616.84;6215110;23;20020;-89
2023/09/15 03:08:36;;;;;;;0.50;0.50;;;;;;;10.19;82.21;99621.34;6187812;23;20020;-89
2023/09/15 03:11:29;;;;;;;0.60;0.60;;;;;;;10.23;81.71;99622.53;6215276;23;20088;-90
2023/09/15 03:14:01;;;;;;;0.50;0.50;;;;;;;10.24;81.72;99616.06;6155777;23;20024;-89
2023/09/15 03:16:30;;;;;;;0.50;0.50;;;;;;;10.23;81.79;99622.53;6187766;23;20030;-90
2023/09/15 03:18:59;;;;;;;0.50;0.50;;;;;;;10.23;81.93;99616.28;6187058;23;20031;-89
2023/09/15 03:21:27;;;;;;;0.60;0.60;;;;;;;10.15;82.70;99625.53;6187445;23;20365;-89
2023/09/15 03:23:55;;;;;;;0.60;0.60;;;;;;;10.08;83.23;99628.31;6186409;23;20020;-90
2023/09/15 03:26:24;;;;;;;0.60;0.60;;;;;;;10.04;83.37;99627.09;6187131;23;20031;-90
2023/09/15 03:28:52;;;;;;;0.50;0.50;;;;;;;10.14;83.22;99634.66;6127759;23;20060;-89
2023/09/15 03:31:19;;;;;;;0.60;0.60;;;;;;;10.27;82.19;99622.88;6069601;23;20510;-90
2023/09/15 03:33:47;;;;;;;0.60;0.60;;;;;;;10.44;81.64;99625.81;6021657;23;20026;-90
2023/09/15 03:36:14;;;;;;;0.60;0.60;;;;;;;10.52;81.18;99630.91;6093262;23;20443;-91
2023/09/15 03:38:41;;;;;;;0.60;0.60;;;;;;;10.55;80.77;99622.34;6093049;23;20037;-89
2023/09/15 03:41:11;;;;;;;0.50;0.50;;;;;;;10.63;80.63;99627.41;6092693;23;20026;-90
2023/09/15 03:43:41;;;;;;;0.50;0.50;;;;;;;10.65;80.35;99619.91;6092943;23;20046;-90
2023/09/15 03:46:08;;;;;;;0.50;0.50;;;;;;;10.65;80.83;99619.09;6068925;23;20419;-90
2023/09/15 03:48:36;;;;;;;0.60;0.60;;;;;;;10.66;81.19;99632.38;6068588;23;20026;-89
2023/09/15 03:51:03;;;;;;;0.60;0.60;;;;;;;10.65;81.33;99622.59;6068822;23;20052;-88
2023/09/15 03:53:30;;;;;;;0.60;0.60;;;;;;;10.59;81.37;99621.66;6092445;23;20022;-89
2023/09/15 03:55:57;;;;;;;0.60;0.60;;;;;;;10.61;81.32;99624.94;6070255;23;20034;-89
2023/09/15 03:58:25;;;;;;;0.50;0.50;;;;;;;10.71;80.94;99629.81;6095203;23;20105;-91
2023/09/15 04:00:52;;;;;;;0.60;0.60;;;;;;;10.79;80.64;99626.75;6095666;23;20089;-90
2023/09/15 04:03:21;;;;;;;0.60;0.60;;;;;;;10.87;79.84;99628.31;6080886;23;20068;-89
2023/09/15 04:05:48;;;;;;;0.60;0.60;;;;;;;10.93;79.23;99624.66;6147882;23;20025;-89
2023/09/15 04:08:18;;;;;;;0.50;0.50;;;;;;;10.92;79.11;99619.53;6191176;23;20021;-90
2023/09/15 04:10:46;;;;;;;0.50;0.50;;;;;;;10.95;79.20;99627.16;6189250;23;20027;-89
2023/09/15 04:13:13;;;;;;;0.60;0.60;;;;;;;10.95;79.08;99627.97;6217664;23;20024;-90
2023/09/15 04:15:44;;;;;;;0.50;0.50;;;;;;;11.01;78.88;99634.31;6190146;23;20048;-90
2023/09/15 04:18:12;;;;;;;0.60;0.60;;;;;;;11.07;78.29;99642.31;6190204;23;20044;-90
2023/09/15 04:20:39;;;;;;;0.60;0.60;;;;;;;11.09;78.02;99638.56;6185232;23;20020;-89
2023/09/15 04:23:13;;;;;;;0.55;0.55;;;;;;;11.13;78.26;99637.88;6188866;23;20463;-90
2023/09/15 04:25:42;;;;;;;0.50;0.50;;;;;;;11.16;78.62;99648.19;6187961;23;20031;-89
2023/09/15 04:28:12;;;;;;;0.60;0.60;;;;;;;11.18;78.84;99637.97;6164237;23;20047;-88
2023/09/15 04:30:42;;;;;;;0.50;0.50;;;;;;;11.21;79.65;99639.41;6162782;23;20028;-89
2023/09/15 04:33:11;;;;;;;0.50;0.50;;;;;;;11.26;80.56;99642.22;6163050;23;20032;-90
2023/09/15 04:35:38;;;;;;;0.60;0.60;;;;;;;11.27;81.26;99646.59;6215319;23;20032;-94
2023/09/15 04:38:07;;;;;;;0.55;0.55;;;;;;;11.34;81.61;99647.28;6216041;23;20059;-91
2023/09/15 04:40:34;;;;;;;0.60;0.60;;;;;;;11.43;81.54;99647.78;6187377;23;20016;-87
2023/09/15 04:43:02;;;;;;;0.50;0.50;;;;;;;11.49;81.39;99644.97;6187113;23;20680;-86
2023/09/15 04:45:30;;;;;;;0.50;0.50;;;;;;;11.60;80.78;99637.91;6188370;23;20025;-90
2023/09/15 04:48:02;;;;;;;0.50;0.50;;;;;;;11.76;79.88;99646.34;6178860;23;20020;-90
2023/09/15 04:50:30;;;;;;;0.55;0.55;;;;;;;11.85;78.92;99644.91;6158915;23;20500;-88
2023/09/15 04:53:02;;;;;;;0.60;0.60;;;;;;;11.96;78.07;99651.41;6189128;23;20048;-89
2023/09/15 04:55:31;;;;;;;0.60;0.60;;;;;;;12.05;77.92;99645.41;6184228;23;20028;-87
2023/09/15 04:58:01;;;;;;;0.60;0.60;;;;;;;12.09;78.10;99646.56;6162385;23;20106;-88
2023/09/15 05:00:34;;;;;;;0.60;0.60;;;;;;;12.14;78.41;99649.38;6136985;23;20016;-86
2023/09/15 05:03:08;;;;;;;0.52;0.52;;;;;;;12.21;78.15;99646.53;6181702;23;20029;-86
2023/09/15 05:05:35;;;;;;;0.50;0.50;;;;;;;12.37;77.22;99655.78;6091219;23;20024;-92
2023/09/15 05:08:03;;;;;;;0.50;0.50;;;;;;;12.43;75.40;99652.13;6142355;23;20024;-90
2023/09/15 05:10:31;;;;;;;0.50;0.50;;;;;;;12.48;74.26;99648.69;6162650;23;20044;-89
2023/09/15 05:13:00;;;;;;;0.60;0.60;;;;;;;12.46;73.68;99646.22;6214723;23;20082;-87
2023/09/15 05:15:28;;;;;;;0.50;0.50;;;;;;;12.71;72.71;99672.13;6190383;23;20119;-89
2023/09/15 05:17:56;;;;;;;0.50;0.50;;;;;;;12.80;72.36;99659.84;6164070;23;20025;-87
2023/09/15 05:20:24;;;;;;;0.60;0.60;;;;;;;12.99;71.80;99672.13;6188150;23;20087;-87
2023/09/15 05:22:51;;;;;;;0.57;0.57;;;;;;;13.07;71.27;99670.09;6186297;23;20538;-88
2023/09/15 05:25:19;;;;;;;0.50;0.50;;;;;;;13.08;71.19;99674.44;6186739;23;20021;-87
2023/09/15 05:27:49;;;;;;;0.50;0.50;;;;;;;12.99;71.17;99677.53;6186954;23;20024;-89
2023/09/15 05:30:17;;;;;;;0.60;0.60;;;;;;;12.90;71.12;99670.88;6186980;23;20031;-88
2023/09/15 05:32:44;;;;;;;0.60;0.60;;;;;;;12.86;71.46;99668.88;6188315;23;20508;-88
2023/09/15 05:35:11;;;;;;;0.60;0.60;;;;;;;12.91;71.31;99679.81;6213905;23;20016;-87
2023/09/15 05:37:42;;;;;;;0.60;0.60;;;;;;;13.03;70.82;99683.28;6214031;23;20043;-87
2023/09/15 05:40:10;;;;;;;0.60;0.60;;;;;;;13.05;70.55;99685.75;6162286;23;20040;-87
2023/09/15 05:42:37;;;;;;;0.60;0.60;;;;;;;13.27;70.07;99686.72;6185763;23;20024;-89
2023/09/15 05:45:08;;;;;;;0.60;0.60;;;;;;;13.48;69.18;99682.44;6189945;23;20031;-85
2023/09/15 05:47:35;;;;;;;0.60;0.60;;;;;;;13.74;67.96;99691.78;6186565;23;20047;-85
2023/09/15 05:50:04;;;;;;;0.60;0.60;;;;;;;13.86;67.00;99684.38;6213378;23;20051;-85
2023/09/15 05:52:32;;;;;;;0.57;0.57;;;;;;;14.02;65.93;99690.00;6214189;23;20025;-86
2023/09/15 05:54:59;;;;;;;0.50;0.50;;;;;;;14.19;65.39;99679.94;6214256;23;20029;-85
2023/09/15 05:57:30;;;;;;;0.60;0.60;;;;;;;14.41;64.09;99676.41;6187057;23;20027;-85
2023/09/15 05:59:57;;;;;;;0.60;0.60;;;;;;;14.63;63.47;99682.66;6212891;23;20030;-85
2023/09/15 06:02:29;;;;;;;0.50;0.50;;;;;;;14.81;62.14;99686.09;6210228;23;20028;-86
2023/09/15 06:04:56;;;;;;;0.50;0.50;;;;;;;14.91;61.81;99680.78;6214006;23;20023;-86
2023/09/15 06:07:24;;;;;;;0.50;0.50;;;;;;;15.07;61.77;99679.88;6214788;23;20043;-87
2023/09/15 06:09:51;;;;;;;0.60;0.60;;;;;;;15.11;60.84;99680.97;6214585;23;20020;-87
2023/09/15 06:12:28;;;;;;;0.60;0.60;;;;;;;15.34;60.55;99684.44;6215609;23;20048;-85
2023/09/15 06:14:59;;;;;;;0.50;0.50;;;;;;;15.61;60.25;99674.31;6188959;23;20024;-84
2023/09/15 06:17:27;;;;;;;0.60;0.60;;;;;;;15.84;59.02;99677.75;6214554;23;20024;-86
2023/09/15 06:19:54;;;;;;;0.60;0.60;;;;;;;15.84;58.43;99677.75;6214577;23;20405;-87
2023/09/15 06:22:24;;;;;;;0.60;0.60;;;;;;;16.05;58.06;99678.69;6189523;23;20029;-88
2023/09/15 06:24:54;;;;;;;0.50;0.50;;;;;;;16.40;57.08;99671.78;6217253;23;20400;-87
2023/09/15 06:27:23;;;;;;;0.60;0.60;;;;;;;16.57;56.14;99674.31;6191231;23;20021;-85
2023/09/15 06:29:54;;;;;;;0.50;0.50;;;;;;;16.78;56.16;99677.94;6229619;23;20021;-89
2023/09/15 06:32:23;;;;;;;0.50;0.50;;;;;;;17.07;54.92;99681.00;6223446;23;20348;-88
2023/09/15 06:34:50;;;;;;;0.60;0.60;;;;;;;17.19;54.73;99676.09;6189569;23;20413;-85
2023/09/15 06:37:18;;;;;;;0.50;0.50;;;;;;;17.27;54.12;99683.72;6129607;23;20022;-87
2023/09/15 06:39:45;;;;;;;0.50;0.50;;;;;;;17.29;53.28;99684.28;6150344;23;20061;-87
2023/09/15 06:42:13;;;;;;;0.50;0.50;;;;;;;17.26;52.30;99673.91;6123122;23;20030;-85
2023/09/15 06:44:41;;;;;;;0.43;0.43;;;;;;;17.25;52.15;99691.38;6151874;23;20041;-87
2023/09/15 06:47:09;;;;;;;0.50;0.50;;;;;;;17.17;52.39;99683.72;6103331;23;20659;-87
2023/09/15 06:49:36;;;;;;;0.50;0.50;;;;;;;17.11;52.59;99684.78;6124604;23;20021;-90
2023/09/15 06:52:04;;;;;;;0.40;0.40;;;;;;;17.10;53.43;99683.97;6145954;23;20063;-84
2023/09/15 06:54:31;;;;;;;0.50;0.50;;;;;;;17.13;53.40;99676.34;6145459;23;20067;-87
2023/09/15 06:56:58;;;;;;;0.40;0.40;;;;;;;17.26;53.60;99679.34;6136239;23;20032;-88
2023/09/15 06:59:25;;;;;;;0.40;0.40;;;;;;;17.20;53.03;99676.91;6106983;23;20028;-88
2023/09/15 07:01:53;;;;;;;0.40;0.40;;;;;;;17.08;53.46;99690.81;6105495;23;20048;-86
2023/09/15 07:04:20;;;;;;;0.50;0.50;;;;;;;16.98;53.95;99680.69;6126902;23;20028;-87
2023/09/15 07:06:48;;;;;;;0.40;0.40;;;;;;;16.88;54.38;99695.13;6154285;23;20177;-89
2023/09/15 07:09:17;;;;;;;0.40;0.40;;;;;;;16.73;54.83;99689.59;6139840;23;20045;-88
2023/09/15 07:11:44;;;;;;;0.50;0.50;;;;;;;16.69;55.52;99692.06;6162881;23;20076;-87
2023/09/15 07:14:23;;;;;;;0.40;0.40;;;;;;;16.55;56.32;99690.09;6143922;23;20021;-89
2023/09/15 07:16:51;;;;;;;0.40;0.40;;;;;;;16.51;56.16;99686.25;6198548;23;20059;-89
2023/09/15 07:19:19;;;;;;;0.40;0.40;;;;;;;16.52;55.87;99683.28;6196125;23;20031;-90
2023/09/15 07:21:47;;;;;;;0.47;0.47;;;;;;;16.68;56.20;99695.03;6203415;23;20099;-85
2023/09/15 07:24:16;;;;;;;0.40;0.40;;;;;;;16.76;55.95;99689.09;6215972;23;20090;-88
2023/09/15 07:26:46;;;;;;;0.40;0.40;;;;;;;16.84;55.32;99688.59;6213363;23;20062;-85
2023/09/15 07:29:21;;;;;;;0.50;0.50;;;;;;;17.08;54.86;99691.63;6211801;23;20405;-86
2023/09/15 07:31:51;;;;;;;0.50;0.50;;;;;;;17.26;54.87;99693.00;6209800;23;20470;-84
2023/09/15 07:34:21;;;;;;;0.50;0.50;;;;;;;17.47;53.81;99693.00;6211407;23;20027;-84
2023/09/15 07:36:50;;;;;;;0.50;0.50;;;;;;;17.71;53.29;99693.25;6211770;23;20025;-84
2023/09/15 07:39:18;;;;;;;0.50;0.50;;;;;;;17.74;52.82;99698.16;6211423;23;20017;-83
2023/09/15 07:41:48;;;;;;;0.50;0.50;;;;;;;17.96;52.59;99695.16;6211173;23;20356;-86
2023/09/15 07:44:15;;;;;;;0.40;0.40;;;;;;;18.04;52.12;99691.06;6214289;23;20025;-85
2023/09/15 07:46:42;;;;;;;0.50;0.50;;;;;;;18.20;51.73;99687.16;6185625;23;20053;-85
2023/09/15 07:49:15;;;;;;;0.50;0.50;;;;;;;18.32;51.72;99692.34;6185480;23;20447;-86
2023/09/15 07:51:43;;;;;;;0.50;0.50;;;;;;;18.56;51.04;99695.22;6209901;23;20516;-84
2023/09/15 07:54:12;;;;;;;0.50;0.50;;;;;;;18.96;50.07;99696.94;6212240;23;20079;-85
2023/09/15 07:56:39;;;;;;;0.57;0.57;;;;;;;19.22;48.48;99705.81;6211218;23;20032;-85
2023/09/15 07:59:07;;;;;;;0.60;0.60;;;;;;;19.40;47.84;99687.91;6210947;23;20031;-84
2023/09/15 08:01:35;;;;;;;0.50;0.50;;;;;;;19.42;47.37;99701.28;6211401;23;20023;-85
2023/09/15 08:04:03;;;;;;;0.40;0.40;;;;;;;19.24;47.28;99713.72;6185810;23;20032;-84
2023/09/15 08:06:31;;;;;;;0.40;0.40;;;;;;;19.31;47.40;99706.03;6212711;23;20448;-84
2023/09/15 08:08:59;;;;;;;0.40;0.40;;;;;;;19.27;47.25;99710.44;6211898;23;20452;-83
2023/09/15 08:11:26;;;;;;;0.50;0.50;;;;;;;19.38;47.18;99702.97;6212535;23;20023;-85
2023/09/15 08:13:54;;;;;;;0.40;0.40;;;;;;;19.66;46.66;99706.84;6210444;23;20025;-83
2023/09/15 08:16:21;;;;;;;0.50;0.50;;;;;;;19.56;46.75;99704.19;6211423;23;20020;-82
2023/09/15 08:19:14;;;;;;;0.50;0.50;;;;;;;19.69;46.94;99707.09;6182352;23;20020;-83
2023/09/15 08:21:42;;;;;;;0.50;0.50;;;;;;;19.83;46.82;99714.66;6212010;23;20024;-85
2023/09/15 08:24:11;;;;;;;0.40;0.40;;;;;;;19.82;45.87;99719.31;6210456;23;20025;-85
2023/09/15 08:26:39;;;;;;;0.40;0.40;;;;;;;19.54;45.06;99706.38;6190558;23;20055;-90
2023/09/15 08:29:11;;;;;;;0.40;0.40;;;;;;;19.52;44.19;99698.44;6201219;23;20017;-86
2023/09/15 08:31:42;;;;;;;0.40;0.40;;;;;;;19.75;44.55;99716.09;6161305;23;20035;-85
2023/09/15 08:34:12;;;;;;;0.40;0.40;;;;;;;19.55;44.39;99697.09;6218370;23;20020;-89
2023/09/15 08:36:42;;;;;;;0.50;0.50;;;;;;;19.65;43.71;99727.13;6174401;23;20364;-90
2023/09/15 08:39:12;;;;;;;0.40;0.40;;;;;;;19.51;43.30;99699.56;6223868;23;20027;-90
2023/09/15 08:41:56;;;;;;;0.40;0.40;;;;;;;19.77;43.30;99710.31;6223526;23;20017;-88
2023/09/15 08:44:31;;;;;;;0.50;0.50;;;;;;;20.12;42.81;99709.97;6141172;23;20405;-91
2023/09/15 08:47:04;;;;;;;0.50;0.50;;;;;;;20.65;42.07;99700.88;6196679;23;20020;-91
2023/09/15 08:49:38;;;;;;;0.60;0.60;;;;;;;21.74;39.81;99715.44;6167435;23;20025;-91
2023/09/15 08:52:11;;;;;;;0.50;0.50;;;;;;;22.25;38.92;99710.97;6196692;23;20020;-91
2023/09/15 08:55:27;;;;;;;0.50;0.50;;;;;;;23.11;38.56;99713.81;6232154;23;20012;-96
2023/09/15 08:58:41;;;;;;;0.60;0.60;;;;;;;23.53;36.19;99710.91;6132679;23;20022;-91
2023/09/15 09:01:09;;;;;;;0.50;0.50;;;;;;;23.75;36.08;99697.16;6139511;23;20093;-92
2023/09/15 09:03:38;;;;;;;0.50;0.50;;;;;;;23.31;36.87;99693.25;6133684;23;20026;-89
2023/09/15 09:06:10;;;;;;;0.45;0.45;;;;;;;22.90;36.88;99696.94;6104370;23;20026;-90
2023/09/15 09:08:40;;;;;;;0.40;0.40;;;;;;;22.62;37.62;99703.63;6135022;23;20050;-89
2023/09/15 09:11:08;;;;;;;0.40;0.40;;;;;;;22.17;38.06;99704.19;6104761;23;20105;-91
2023/09/15 09:13:40;;;;;;;0.40;0.40;;;;;;;22.06;37.80;99705.53;6127155;23;20041;-92
2023/09/15 09:16:13;;;;;;;0.40;0.40;;;;;;;22.07;37.56;99705.22;6127443;23;20026;-89
2023/09/15 09:18:40;;;;;;;0.40;0.40;;;;;;;21.93;37.37;99701.66;6107602;23;20048;-90
2023/09/15 09:21:10;;;;;;;0.40;0.40;;;;;;;21.39;37.16;99701.19;6128227;23;20022;-90
2023/09/15 09:23:43;;;;;;;0.40;0.40;;;;;;;21.29;38.26;99703.25;6089259;23;20025;-88
2023/09/15 09:26:11;;;;;;;0.50;0.50;;;;;;;21.55;38.45;99696.28;6135814;23;20025;-88
2023/09/15 09:28:39;;;;;;;0.50;0.50;;;;;;;21.77;38.35;99694.78;6134455;23;20033;-89
2023/09/15 09:31:09;;;;;;;0.45;0.45;;;;;;;21.90;38.49;99704.16;6110052;23;20610;-86
2023/09/15 09:33:37;;;;;;;0.50;0.50;;;;;;;21.62;39.06;99693.97;6091301;23;20015;-91
2023/09/15 09:36:13;;;;;;;0.40;0.40;;;;;;;21.64;37.92;99696.38;6103835;23;20022;-91
2023/09/15 09:38:52;;;;;;;0.50;0.50;;;;;;;21.34;39.12;99703.16;6079169;23;20025;-92
2023/09/15 09:41:25;;;;;;;;;;;;;;;21.17;39.64;99704.53;6115174;23;20026;-90
2023/09/15 09:44:19;;;;;;;0.40;0.40;;;;;;;21.33;39.89;99702.34;6021621;23;19958;-93
2023/09/15 09:46:56;;;;;;;0.40;0.40;;;;;;;20.71;40.03;99683.25;6002120;23;20023;-93
2023/09/15 09:49:24;;;;;;;0.40;0.40;;;;;;;20.31;41.56;99677.16;6096279;23;20030;-90
2023/09/15 09:51:52;;;;;;;0.40;0.40;;;;;;;20.34;41.71;99693.00;6083672;23;20018;-92
2023/09/15 09:54:26;;;;;;;0.40;0.40;;;;;;;20.74;40.91;99696.38;6105343;23;20026;-91
2023/09/15 09:57:12;;;;;;;0.50;0.50;;;;;;;20.68;40.81;99675.59;6112904;23;20022;-93
2023/09/15 09:59:58;;;;;;;0.40;0.40;;;;;;;20.91;40.48;99684.88;6090579;23;20253;-93
2023/09/15 10:02:32;;;;;;;0.40;0.40;;;;;;;20.84;40.41;99676.22;6113600;23;20002;-92
2023/09/15 10:05:14;;;;;;;0.40;0.40;;;;;;;21.34;40.17;99686.69;6091125;23;20025;-91
2023/09/15 10:08:08;;;;;;;0.40;0.40;;;;;;;21.62;39.26;99679.38;6112492;23;20071;-93
2023/09/15 10:10:49;;;;;;;0.40;0.40;;;;;;;21.32;37.82;99699.91;6092707;23;20051;-92
2023/09/15 10:13:55;;;;;;;0.40;0.40;;;;;;;21.46;38.07;99700.00;6096549;23;20026;-92
2023/09/15 10:16:25;;;;;;;0.50;0.50;;;;;;;20.98;38.20;99696.28;6194138;23;20009;-93
2023/09/15 10:19:09;;;;;;;0.40;0.40;;;;;;;21.02;38.45;99684.75;6184303;23;20071;-94
2023/09/15 10:21:37;;;;;;;0.40;0.40;;;;;;;21.06;38.58;99697.53;6208158;23;20052;-90
2023/09/15 10:24:07;;;;;;;0.50;0.50;;;;;;;21.11;38.71;99699.41;6150585;23;20064;-91
2023/09/15 10:27:11;;;;;;;0.50;0.50;;;;;;;21.12;38.93;99692.81;6173153;23;20029;-91
2023/09/15 10:29:39;;;;;;;0.40;0.40;;;;;;;21.02;39.42;99691.03;6124955;23;20056;-90
2023/09/15 10:32:06;;;;;;;0.40;0.40;;;;;;;21.16;39.21;99702.06;6180591;23;20025;-88
2023/09/15 10:34:35;;;;;;;0.40;0.40;;;;;;;21.53;38.60;99698.50;6177410;23;20099;-88
2023/09/15 10:37:19;;;;;;;0.40;0.40;;;;;;;22.01;37.90;99700.13;6232369;23;20028;-89
2023/09/15 10:39:47;;;;;;;0.40;0.40;;;;;;;22.45;37.53;99699.53;6209014;23;20080;-89
2023/09/15 10:42:30;;;;;;;0.40;0.40;;;;;;;22.34;36.69;99700.06;6214673;23;20001;-91
2023/09/15 10:44:57;;;;;;;0.40;0.40;;;;;;;21.83;37.53;99697.16;6228944;23;20024;-87
2023/09/15 10:47:24;;;;;;;0.40;0.40;;;;;;;21.61;38.05;99691.50;6226699;23;20027;-86
2023/09/15 10:49:53;;;;;;;0.40;0.40;;;;;;;21.78;37.50;99702.75;6174466;22;20499;-91
2023/09/15 10:52:39;;;;;;;0.40;0.40;;;;;;;21.77;37.63;99703.03;6187039;23;20391;-91
2023/09/15 10:55:09;;;;;;;0.40;0.40;;;;;;;21.36;38.16;99707.25;6241402;22;20015;-90
2023/09/15 10:57:57;;;;;;;0.40;0.40;;;;;;;21.15;39.07;99723.22;6200157;23;20025;-89
2023/09/15 11:00:31;;;;;;;0.40;0.40;;;;;;;21.17;38.48;99711.97;6207032;23;20449;-92
2023/09/15 11:02:58;;;;;;;0.40;0.40;;;;;;;21.23;38.96;99712.69;6209869;23;20033;-91
2023/09/15 11:05:27;;;;;;;0.30;0.30;;;;;;;20.93;38.90;99710.09;6235765;23;20025;-90
2023/09/15 11:07:56;;;;;;;0.40;0.40;;;;;;;20.74;40.16;99710.09;6230899;23;20088;-91
2023/09/15 11:10:33;;;;;;;0.38;0.38;;;;;;;20.71;39.32;99707.09;6206582;23;20024;-91
2023/09/15 11:13:04;;;;;;;0.40;0.40;;;;;;;20.62;38.95;99703.41;6134962;23;20867;-90
2023/09/15 11:15:42;;;;;;;0.40;0.40;;;;;;;20.44;39.54;99691.25;6208385;23;20484;-91
2023/09/15 11:18:12;;;;;;;0.40;0.40;;;;;;;20.73;39.55;99710.38;6227712;23;20044;-90
2023/09/15 11:20:40;;;;;;;0.50;0.50;;;;;;;20.63;39.87;99681.16;6228134;23;20020;-90
2023/09/15 11:23:12;;;;;;;0.40;0.40;;;;;;;20.88;39.79;99717.56;6231162;23;20036;-91
2023/09/15 11:25:46;;;;;;;0.50;0.50;;;;;;;20.84;39.76;99689.94;6125301;23;20047;-91
2023/09/15 11:28:15;;;;;;;0.40;0.40;;;;;;;21.21;39.91;99716.53;6196642;23;20073;-90
2023/09/15 11:30:43;;;;;;;0.40;0.40;;;;;;;21.09;39.92;99701.63;6203575;23;20196;-90
2023/09/15 11:33:12;;;;;;;0.50;0.50;;;;;;;20.99;40.25;99699.88;6172467;23;20031;-90
2023/09/15 11:35:39;;;;;;;0.40;0.40;;;;;;;21.14;39.99;99713.38;6203554;23;20044;-91
2023/09/15 11:38:13;;;;;;;0.57;0.57;;;;;;;21.36;39.50;99718.22;6166562;23;20459;-91
2023/09/15 11:40:46;;;;;;;0.40;0.40;;;;;;;21.57;38.81;99702.28;6190271;23;20025;-92
2023/09/15 11:43:14;;;;;;;0.60;0.60;;;;;;;22.54;37.45;99707.91;6179987;23;19996;-90
2023/09/15 11:45:41;;;;;;;0.60;0.60;;;;;;;23.56;36.12;99718.56;6222394;23;20021;-89
2023/09/15 11:48:10;;;;;;;0.50;0.50;;;;;;;24.02;35.03;99703.59;6153098;23;20036;-91
2023/09/15 11:50:41;;;;;;;0.50;0.50;;;;;;;23.72;35.15;99717.06;6165684;23;20016;-91